Time,TemperatureF,DewpointF,PressureIn,WindDirection,WindDirectionDegrees,WindSpeedMPH,WindSpeedGustMPH,Humidity,HourlyPrecipIn,Conditions,Clouds,dailyrainin,SoftwareType,DateUTC
2013-07-26 00:00:00,56.0,51.0,-100.00,North,-999,-999.0,-999.0,82,0.00,,,-99.99,,2013-07-26 07:00:00,
2013-07-26 00:53:00,56.0,51.0,-100.00,North,-999,-999.0,-999.0,82,0.00,,,-99.99,,2013-07-26 07:53:00,
2013-07-26 01:00:00,58.0,52.0,-100.00,North,-999,-999.0,-999.0,80,0.00,,,-99.99,,2013-07-26 08:00:00,
2013-07-26 01:52:00,58.0,52.0,-100.00,North,-999,-999.0,-999.0,80,0.00,,,-99.99,,2013-07-26 08:52:00,
2013-07-26 02:00:00,56.0,51.0,-100.00,North,-999,-999.0,-999.0,83,0.00,,,-99.99,,2013-07-26 09:00:00,
2013-07-26 02:52:00,56.0,51.0,-100.00,North,-999,-999.0,-999.0,83,0.00,,,-99.99,,2013-07-26 09:52:00,
2013-07-26 03:00:00,55.0,51.0,-100.00,North,-999,-999.0,-999.0,85,0.00,,,-99.99,,2013-07-26 10:00:00,
2013-07-26 03:52:00,55.0,51.0,-100.00,North,-999,-999.0,-999.0,85,0.00,,,-99.99,,2013-07-26 10:52:00,
2013-07-26 04:00:00,49.0,48.0,-100.00,North,-999,-999.0,-999.0,94,0.00,,,-99.99,,2013-07-26 11:00:00,
2013-07-26 04:52:00,49.0,48.0,-100.00,North,-999,-999.0,-999.0,94,0.00,,,-99.99,,2013-07-26 11:52:00,
2013-07-26 05:00:00,49.0,49.0,-100.00,North,-999,-999.0,-999.0,99,0.00,,,-99.99,,2013-07-26 12:00:00,
2013-07-26 05:53:00,49.0,49.0,-100.00,North,-999,-999.0,-999.0,99,0.00,,,-99.99,,2013-07-26 12:53:00,
2013-07-26 06:00:00,49.0,49.0,-100.00,North,-999,-999.0,-999.0,99,0.00,,,-99.99,,2013-07-26 13:00:00,
2013-07-26 06:32:00,49.0,49.0,-100.00,North,-999,-999.0,-999.0,99,0.00,,,-99.99,,2013-07-26 13:32:00,
2013-07-26 06:53:00,49.0,49.0,-100.00,North,-999,-999.0,-999.0,99,0.00,,,-99.99,,2013-07-26 13:53:00,
2013-07-26 07:00:00,50.0,50.0,-100.00,North,-999,-999.0,-999.0,99,0.00,,,-99.99,,2013-07-26 14:00:00,
2013-07-26 07:33:00,49.0,49.0,-100.00,North,-999,-999.0,-999.0,99,0.00,,,-99.99,,2013-07-26 14:33:00,
2013-07-26 07:53:00,50.0,50.0,-100.00,North,-999,-999.0,-999.0,99,0.00,,,-99.99,,2013-07-26 14:53:00,
2013-07-26 08:00:00,51.0,51.0,-100.00,North,-999,-999.0,-999.0,99,0.00,,,-99.99,,2013-07-26 15:00:00,
2013-07-26 08:53:00,51.0,51.0,-100.00,North,-999,-999.0,-999.0,99,0.00,,,-99.99,,2013-07-26 15:53:00,
2013-07-26 11:00:00,64.0,54.0,-100.00,North,-999,-999.0,-999.0,69,0.00,,,-99.99,,2013-07-26 18:00:00,
2013-07-26 15:00:00,79.0,59.0,-100.00,North,-999,-999.0,-999.0,49,0.00,,,-99.99,,2013-07-26 22:00:00,
2013-07-26 15:53:00,79.0,59.0,-100.00,North,-999,-999.0,-999.0,49,0.00,,,-99.99,,2013-07-26 22:53:00,
2013-07-26 17:00:00,80.0,60.0,-100.00,North,-999,-999.0,-999.0,50,0.00,,,-99.99,,2013-07-27 00:00:00,
2013-07-26 17:22:00,80.0,60.0,-100.00,North,-999,-999.0,-999.0,49,0.00,,,-99.99,,2013-07-27 00:22:00,
2013-07-26 17:32:00,80.0,60.0,-100.00,North,-999,-999.0,-999.0,50,0.00,,,-99.99,,2013-07-27 00:32:00,
2013-07-26 17:43:00,80.0,60.0,-100.00,North,-999,-999.0,-999.0,50,0.00,,,-99.99,,2013-07-27 00:43:00,
2013-07-26 17:53:00,80.0,60.0,-100.00,North,-999,-999.0,-999.0,50,0.00,,,-99.99,,2013-07-27 00:53:00,
2013-07-26 18:00:00,76.0,59.0,-100.00,North,-999,-999.0,-999.0,55,0.00,,,-99.99,,2013-07-27 01:00:00,
2013-07-26 18:32:00,76.0,59.0,-100.00,North,-999,-999.0,-999.0,55,0.00,,,-99.99,,2013-07-27 01:32:00,
2013-07-26 18:44:00,76.0,59.0,-100.00,North,-999,-999.0,-999.0,55,0.00,,,-99.99,,2013-07-27 01:44:00,
2013-07-26 18:53:00,76.0,59.0,-100.00,North,-999,-999.0,-999.0,55,0.00,,,-99.99,,2013-07-27 01:53:00,
2013-07-26 19:00:00,71.0,57.0,-100.00,North,-999,-999.0,-999.0,61,0.00,,,-99.99,,2013-07-27 02:00:00,
2013-07-26 19:32:00,71.0,57.0,-100.00,North,-999,-999.0,-999.0,61,0.00,,,-99.99,,2013-07-27 02:32:00,
2013-07-26 19:43:00,71.0,57.0,-100.00,North,-999,-999.0,-999.0,61,0.00,,,-99.99,,2013-07-27 02:43:00,
2013-07-26 19:53:00,71.0,57.0,-100.00,North,-999,-999.0,-999.0,61,0.00,,,-99.99,,2013-07-27 02:53:00,
2013-07-26 20:52:00,66.0,55.0,-100.00,North,-999,-999.0,-999.0,68,0.00,,,-99.99,,2013-07-27 03:52:00,
2013-07-26 21:00:00,63.0,54.0,-100.00,North,-999,-999.0,-999.0,71,0.00,,,-99.99,,2013-07-27 04:00:00,
2013-07-26 21:53:00,63.0,54.0,-100.00,North,-999,-999.0,-999.0,71,0.00,,,-99.99,,2013-07-27 04:53:00,
2013-07-26 22:00:00,60.0,53.0,-100.00,North,-999,-999.0,-999.0,78,0.00,,,-99.99,,2013-07-27 05:00:00,
2013-07-26 22:52:00,60.0,53.0,-100.00,North,-999,-999.0,-999.0,78,0.00,,,-99.99,,2013-07-27 05:52:00,
2013-07-26 23:00:00,57.0,52.0,-100.00,North,-999,-999.0,-999.0,83,0.00,,,-99.99,,2013-07-27 06:00:00,
2013-07-26 23:52:00,60.0,53.0,-100.00,North,-999,-999.0,-999.0,78,0.00,,,-99.99,,2013-07-27 06:52:00,